Aeroporto :
LOGIN :

Iscrizione | Disclaimer

   EN    FR    IT 

 










Sommario :    VFR   VFR Marginale   IFR   IFR Intensivo   IFR Molto Intensivo
Visibilità : 
Base nubi : 
>= 8 km
>= 3000ft
5 / 8 km
1000 / 3000 ft
1500m / 5 km
500 / 1000 ft
800 / 1500m
200 / 500 ft
< 800m
< 200 ft
Simboli :   Temporali  Nebbia  Neve Forte  Precipitazioni Forti  Vento > 20 kt
SIGMETs :   Varie  Temporali  Ghiacco  Turbolenza  Onda orograficha  Ceneri Vulcaniche







- Altitudine del aeroporto : 5600 ft
- Codice IATA : SMV


LSZS - Samedan

ULTIMO METAR :
  • 171020Z 22001KT CAVOK M05/M12 Q1029 RMK H

METARs OBSOLETI :
  • 170950Z 00000KT CAVOK M08/M14 Q1029 RMK G
  • 170920Z 00000KT CAVOK M09/M13 Q1029 RMK F
  • 170850Z VRB01KT CAVOK M12/M14 Q1029 RMK E
  • 170820Z VRB02KT CAVOK M14/M16 Q1029 RMK D
  • 170750Z 21003KT CAVOK M16/M18 Q1030 RMK C

TAF TAF LSZS
Valido dal 17 a 09 ore il 17 a 18 ore UTC


170825Z 1709/1718 21003KT CAVOK TX07/1715Z
ATIS : +41 81 834 93 24
Nessun NOTAM noto per questo aeroporto.



MetMap, La meteo Aeronautica in un colpo d'occhio ! - Copyright ORBIFLY Dicembre 2007 - Disclaimer

ORBIFLY MET'MAP TEAM :

Programmazione e sviluppo : Alexandra Zaïnal
Concezione e sviluppo : Baudouin d'Aumeries
Co-Programmazione e sviluppo : Marc-Olivier Méhu
Supporto tecnico e logistico : Manuel Goepfert
Aiuto per la traduzione : Arnaldo La Scala

Contatto : metmap@orbifly.com




FONTI E CREDITI :

   NOAA